sensor_id;sensor_type;location;lat;lon;timestamp;pressure;altitude;pressure_sealevel;temperature;humidity
1472;BME280;963;42.644;23.336;2022-09-09T00:02:08;94416.38;;;20.19;67.07
1472;BME280;963;42.644;23.336;2022-09-09T00:04:41;94406.78;;;20.22;66.10
1472;BME280;963;42.644;23.336;2022-09-09T00:09:58;94409.03;;;20.23;67.63
1472;BME280;963;42.644;23.336;2022-09-09T00:15:21;94409.72;;;20.27;67.66
1472;BME280;963;42.644;23.336;2022-09-09T00:17:56;94410.56;;;20.24;67.28
1472;BME280;963;42.644;23.336;2022-09-09T00:20:32;94416.34;;;20.39;66.79
1472;BME280;963;42.644;23.336;2022-09-09T00:25:53;94396.03;;;20.25;66.81
1472;BME280;963;42.644;23.336;2022-09-09T00:28:24;94396.69;;;19.90;68.52
1472;BME280;963;42.644;23.336;2022-09-09T00:30:50;94391.38;;;19.90;68.72
1472;BME280;963;42.644;23.336;2022-09-09T00:33:19;94381.56;;;20.03;68.22
1472;BME280;963;42.644;23.336;2022-09-09T00:35:49;94383.41;;;20.06;68.03
1472;BME280;963;42.644;23.336;2022-09-09T00:38:31;94380.06;;;20.02;68.04
1472;BME280;963;42.644;23.336;2022-09-09T00:41:11;94373.56;;;20.03;67.86
1472;BME280;963;42.644;23.336;2022-09-09T00:43:40;94363.63;;;20.04;68.26
1472;BME280;963;42.644;23.336;2022-09-09T00:46:24;94357.19;;;20.01;68.47
1472;BME280;963;42.644;23.336;2022-09-09T00:59:53;94357.94;;;20.21;68.00
1472;BME280;963;42.644;23.336;2022-09-09T01:02:35;94360.22;;;20.23;67.92
1472;BME280;963;42.644;23.336;2022-09-09T01:05:20;94361.88;;;20.17;68.16
1472;BME280;963;42.644;23.336;2022-09-09T01:07:48;94371.78;;;20.16;68.32
1472;BME280;963;42.644;23.336;2022-09-09T01:10:24;94367.13;;;20.20;68.13
1472;BME280;963;42.644;23.336;2022-09-09T01:12:52;94357.28;;;20.17;67.80
1472;BME280;963;42.644;23.336;2022-09-09T01:15:26;94370.16;;;20.22;67.92
1472;BME280;963;42.644;23.336;2022-09-09T01:18:00;94366.31;;;20.23;68.05
1472;BME280;963;42.644;23.336;2022-09-09T01:23:48;94372.47;;;20.20;67.77
1472;BME280;963;42.644;23.336;2022-09-09T01:28:34;94364.34;;;20.08;68.41
1472;BME280;963;42.644;23.336;2022-09-09T01:31:03;94370.88;;;20.03;68.58
1472;BME280;963;42.644;23.336;2022-09-09T01:33:29;94356.09;;;19.98;68.51
1472;BME280;963;42.644;23.336;2022-09-09T01:36:08;94374.31;;;20.04;68.35
1472;BME280;963;42.644;23.336;2022-09-09T01:38:36;94378.16;;;20.03;68.06
1472;BME280;963;42.644;23.336;2022-09-09T01:41:02;94375.53;;;19.99;67.99
1472;BME280;963;42.644;23.336;2022-09-09T01:43:28;94381.72;;;19.96;68.19
1472;BME280;963;42.644;23.336;2022-09-09T01:45:56;94381.63;;;19.99;67.98
1472;BME280;963;42.644;23.336;2022-09-09T01:48:24;94375.19;;;19.97;67.62
1472;BME280;963;42.644;23.336;2022-09-09T01:50:50;94381.22;;;20.01;67.49
1472;BME280;963;42.644;23.336;2022-09-09T01:53:17;94411.28;;;20.05;67.29
1472;BME280;963;42.644;23.336;2022-09-09T01:56:12;94379.38;;;19.98;67.25
1472;BME280;963;42.644;23.336;2022-09-09T01:58:47;94400.59;;;20.05;67.43
1472;BME280;963;42.644;23.336;2022-09-09T02:01:36;94403.34;;;20.02;67.61
1472;BME280;963;42.644;23.336;2022-09-09T02:06:56;94392.81;;;19.94;68.05
1472;BME280;963;42.644;23.336;2022-09-09T02:09:25;94376.84;;;19.91;68.44
1472;BME280;963;42.644;23.336;2022-09-09T02:12:05;94376.16;;;19.87;68.43
1472;BME280;963;42.644;23.336;2022-09-09T02:14:36;94380.00;;;19.86;68.68
1472;BME280;963;42.644;23.336;2022-09-09T02:17:09;94386.03;;;19.90;68.10
1472;BME280;963;42.644;23.336;2022-09-09T02:19:49;94352.75;;;19.75;68.62
1472;BME280;963;42.644;23.336;2022-09-09T02:22:19;94348.09;;;19.79;68.77
1472;BME280;963;42.644;23.336;2022-09-09T02:24:48;94365.28;;;19.78;69.08
1472;BME280;963;42.644;23.336;2022-09-09T02:27:16;94361.00;;;19.60;69.56
1472;BME280;963;42.644;23.336;2022-09-09T02:29:43;94372.31;;;19.45;70.04
1472;BME280;963;42.644;23.336;2022-09-09T02:32:15;94372.94;;;19.52;69.80
1472;BME280;963;42.644;23.336;2022-09-09T02:34:48;94374.47;;;19.53;69.86
1472;BME280;963;42.644;23.336;2022-09-09T02:37:18;94376.78;;;19.51;69.90
1472;BME280;963;42.644;23.336;2022-09-09T02:39:46;94374.91;;;19.48;70.11
1472;BME280;963;42.644;23.336;2022-09-09T02:42:12;94378.28;;;19.52;69.91
1472;BME280;963;42.644;23.336;2022-09-09T02:44:40;94384.69;;;19.58;70.10
1472;BME280;963;42.644;23.336;2022-09-09T02:47:35;94391.09;;;19.61;69.73
1472;BME280;963;42.644;23.336;2022-09-09T02:50:23;94393.38;;;19.62;69.66
1472;BME280;963;42.644;23.336;2022-09-09T02:58:21;94378.28;;;19.52;69.95
1472;BME280;963;42.644;23.336;2022-09-09T03:00:49;94391.59;;;19.56;69.93
1472;BME280;963;42.644;23.336;2022-09-09T03:03:16;94380.03;;;19.39;70.45
1472;BME280;963;42.644;23.336;2022-09-09T03:05:42;94383.03;;;19.41;70.26
1472;BME280;963;42.644;23.336;2022-09-09T03:08:08;94396.38;;;19.41;70.36
1472;BME280;963;42.644;23.336;2022-09-09T03:10:34;94384.56;;;19.42;69.84
1472;BME280;963;42.644;23.336;2022-09-09T03:13:00;94394.94;;;19.36;69.77
1472;BME280;963;42.644;23.336;2022-09-09T03:15:26;94398.34;;;19.37;69.78
1472;BME280;963;42.644;23.336;2022-09-09T03:17:55;94401.03;;;19.37;70.03
1472;BME280;963;42.644;23.336;2022-09-09T03:20:26;94387.44;;;19.28;70.08
1472;BME280;963;42.644;23.336;2022-09-09T03:22:52;94375.50;;;19.13;70.26
1472;BME280;963;42.644;23.336;2022-09-09T03:25:19;94394.75;;;19.24;70.12
1472;BME280;963;42.644;23.336;2022-09-09T03:27:44;94398.56;;;19.23;69.96
1472;BME280;963;42.644;23.336;2022-09-09T03:30:10;94385.13;;;19.07;70.29
1472;BME280;963;42.644;23.336;2022-09-09T03:32:36;94398.44;;;19.07;70.15
1472;BME280;963;42.644;23.336;2022-09-09T03:35:02;94394.03;;;18.96;71.14
1472;BME280;963;42.644;23.336;2022-09-09T03:37:28;94375.44;;;18.89;70.95
1472;BME280;963;42.644;23.336;2022-09-09T03:39:53;94384.06;;;19.00;70.91
1472;BME280;963;42.644;23.336;2022-09-09T03:42:22;94379.53;;;18.97;70.70
1472;BME280;963;42.644;23.336;2022-09-09T03:44:47;94390.69;;;18.89;71.41
1472;BME280;963;42.644;23.336;2022-09-09T03:47:20;94380.09;;;18.85;71.07
1472;BME280;963;42.644;23.336;2022-09-09T03:49:47;94389.59;;;18.86;71.12
1472;BME280;963;42.644;23.336;2022-09-09T03:52:14;94381.59;;;18.86;71.33
1472;BME280;963;42.644;23.336;2022-09-09T03:54:40;94385.66;;;18.94;70.91
1472;BME280;963;42.644;23.336;2022-09-09T03:57:06;94389.84;;;18.95;70.92
1472;BME280;963;42.644;23.336;2022-09-09T03:59:32;94382.22;;;18.97;70.81
1472;BME280;963;42.644;23.336;2022-09-09T04:01:57;94379.91;;;18.99;70.65
1472;BME280;963;42.644;23.336;2022-09-09T04:04:24;94400.75;;;19.04;70.61
1472;BME280;963;42.644;23.336;2022-09-09T04:06:51;94395.78;;;19.07;70.57
1472;BME280;963;42.644;23.336;2022-09-09T04:09:17;94406.44;;;19.07;70.85
1472;BME280;963;42.644;23.336;2022-09-09T04:11:42;94394.63;;;19.08;70.65
1472;BME280;963;42.644;23.336;2022-09-09T04:14:08;94397.22;;;19.11;70.72
1472;BME280;963;42.644;23.336;2022-09-09T04:16:34;94408.31;;;19.10;71.01
1472;BME280;963;42.644;23.336;2022-09-09T04:19:02;94393.41;;;18.55;72.39
1472;BME280;963;42.644;23.336;2022-09-09T04:21:29;94396.78;;;18.89;71.21
1472;BME280;963;42.644;23.336;2022-09-09T04:23:55;94389.06;;;18.95;70.94
1472;BME280;963;42.644;23.336;2022-09-09T04:26:20;94397.81;;;18.99;70.93
1472;BME280;963;42.644;23.336;2022-09-09T04:28:46;94391.25;;;19.03;70.99
1472;BME280;963;42.644;23.336;2022-09-09T04:31:20;94396.47;;;19.11;71.25
1472;BME280;963;42.644;23.336;2022-09-09T04:33:48;94411.66;;;19.14;71.29
1472;BME280;963;42.644;23.336;2022-09-09T04:36:14;94399.84;;;19.15;71.27
1472;BME280;963;42.644;23.336;2022-09-09T04:38:40;94398.22;;;19.21;71.00
1472;BME280;963;42.644;23.336;2022-09-09T04:41:06;94397.13;;;19.18;70.82
1472;BME280;963;42.644;23.336;2022-09-09T04:43:32;94414.16;;;19.24;70.95
1472;BME280;963;42.644;23.336;2022-09-09T04:45:58;94421.28;;;19.31;71.12
1472;BME280;963;42.644;23.336;2022-09-09T04:48:24;94417.44;;;19.35;70.84
1472;BME280;963;42.644;23.336;2022-09-09T04:51:08;94416.63;;;19.39;70.42
1472;BME280;963;42.644;23.336;2022-09-09T04:53:34;94395.34;;;19.35;69.79
1472;BME280;963;42.644;23.336;2022-09-09T04:56:04;94392.59;;;19.15;70.07
1472;BME280;963;42.644;23.336;2022-09-09T04:58:30;94390.97;;;19.21;70.04
1472;BME280;963;42.644;23.336;2022-09-09T05:01:03;94383.78;;;19.18;70.29
1472;BME280;963;42.644;23.336;2022-09-09T05:03:29;94378.75;;;19.24;69.76
1472;BME280;963;42.644;23.336;2022-09-09T05:05:54;94384.69;;;19.35;69.70
1472;BME280;963;42.644;23.336;2022-09-09T05:08:26;94381.47;;;19.44;69.29
1472;BME280;963;42.644;23.336;2022-09-09T05:10:52;94375.38;;;19.43;69.58
1472;BME280;963;42.644;23.336;2022-09-09T05:13:17;94362.19;;;19.36;69.20
1472;BME280;963;42.644;23.336;2022-09-09T05:15:51;94371.34;;;19.35;69.29
1472;BME280;963;42.644;23.336;2022-09-09T05:18:17;94394.19;;;19.59;68.54
1472;BME280;963;42.644;23.336;2022-09-09T05:20:42;94422.22;;;19.71;68.21
1472;BME280;963;42.644;23.336;2022-09-09T05:23:08;94389.88;;;19.65;68.75
1472;BME280;963;42.644;23.336;2022-09-09T05:25:34;94354.16;;;19.59;68.35
1472;BME280;963;42.644;23.336;2022-09-09T05:28:00;94363.44;;;19.75;67.64
1472;BME280;963;42.644;23.336;2022-09-09T05:30:26;94363.63;;;19.84;67.57
1472;BME280;963;42.644;23.336;2022-09-09T05:32:51;94371.50;;;19.91;66.45
1472;BME280;963;42.644;23.336;2022-09-09T05:35:17;94379.94;;;19.89;66.72
1472;BME280;963;42.644;23.336;2022-09-09T05:37:44;94360.97;;;19.84;67.26
1472;BME280;963;42.644;23.336;2022-09-09T05:40:11;94381.91;;;20.05;66.58
1472;BME280;963;42.644;23.336;2022-09-09T05:42:37;94396.66;;;20.13;66.38
1472;BME280;963;42.644;23.336;2022-09-09T05:45:04;94372.88;;;20.19;66.16
1472;BME280;963;42.644;23.336;2022-09-09T05:47:30;94375.97;;;20.17;66.15
1472;BME280;963;42.644;23.336;2022-09-09T05:49:55;94387.88;;;20.33;65.48
1472;BME280;963;42.644;23.336;2022-09-09T05:52:21;94395.69;;;20.43;65.18
1472;BME280;963;42.644;23.336;2022-09-09T05:54:46;94385.97;;;20.53;64.98
1472;BME280;963;42.644;23.336;2022-09-09T05:57:11;94382.97;;;20.67;63.78
1472;BME280;963;42.644;23.336;2022-09-09T05:59:37;94384.81;;;20.70;64.12
1472;BME280;963;42.644;23.336;2022-09-09T06:02:03;94376.97;;;20.79;63.45
1472;BME280;963;42.644;23.336;2022-09-09T06:04:28;94372.22;;;20.71;64.00
1472;BME280;963;42.644;23.336;2022-09-09T06:06:55;94387.78;;;20.92;63.68
1472;BME280;963;42.644;23.336;2022-09-09T06:09:20;94390.22;;;20.86;64.51
1472;BME280;963;42.644;23.336;2022-09-09T06:11:46;94392.56;;;21.01;63.83
1472;BME280;963;42.644;23.336;2022-09-09T06:14:11;94374.69;;;20.98;64.36
1472;BME280;963;42.644;23.336;2022-09-09T06:16:37;94392.44;;;21.24;64.14
1472;BME280;963;42.644;23.336;2022-09-09T06:19:03;94388.41;;;21.32;63.92
1472;BME280;963;42.644;23.336;2022-09-09T06:21:34;94396.78;;;21.34;64.00
1472;BME280;963;42.644;23.336;2022-09-09T06:24:00;94387.41;;;21.42;63.05
1472;BME280;963;42.644;23.336;2022-09-09T06:26:36;94395.00;;;21.44;62.33
1472;BME280;963;42.644;23.336;2022-09-09T06:29:03;94393.41;;;21.46;62.46
1472;BME280;963;42.644;23.336;2022-09-09T06:31:31;94402.03;;;21.54;62.37
1472;BME280;963;42.644;23.336;2022-09-09T06:33:58;94402.94;;;21.64;62.05
1472;BME280;963;42.644;23.336;2022-09-09T06:36:28;94404.47;;;21.65;61.71
1472;BME280;963;42.644;23.336;2022-09-09T06:38:54;94390.03;;;21.75;61.23
1472;BME280;963;42.644;23.336;2022-09-09T06:41:21;94375.06;;;21.77;61.31
1472;BME280;963;42.644;23.336;2022-09-09T06:43:47;94378.91;;;21.76;60.41
1472;BME280;963;42.644;23.336;2022-09-09T06:46:15;94380.22;;;21.84;59.82
1472;BME280;963;42.644;23.336;2022-09-09T06:48:41;94377.78;;;21.90;59.88
1472;BME280;963;42.644;23.336;2022-09-09T06:51:11;94381.25;;;21.74;60.71
1472;BME280;963;42.644;23.336;2022-09-09T06:53:37;94388.69;;;21.83;59.76
1472;BME280;963;42.644;23.336;2022-09-09T06:58:44;94392.66;;;22.07;58.91
1472;BME280;963;42.644;23.336;2022-09-09T07:01:15;94397.41;;;22.16;57.94
1472;BME280;963;42.644;23.336;2022-09-09T07:03:42;94405.00;;;22.18;58.22
1472;BME280;963;42.644;23.336;2022-09-09T07:06:14;94400.88;;;22.00;58.85
1472;BME280;963;42.644;23.336;2022-09-09T07:08:40;94409.41;;;22.11;58.71
1472;BME280;963;42.644;23.336;2022-09-09T07:11:07;94396.13;;;22.21;58.77
1472;BME280;963;42.644;23.336;2022-09-09T07:13:34;94395.59;;;22.26;58.95
1472;BME280;963;42.644;23.336;2022-09-09T07:16:04;94389.00;;;22.30;58.10
1472;BME280;963;42.644;23.336;2022-09-09T07:18:29;94383.56;;;22.05;59.55
1472;BME280;963;42.644;23.336;2022-09-09T07:20:55;94388.56;;;22.03;59.28
1472;BME280;963;42.644;23.336;2022-09-09T07:23:23;94381.66;;;22.18;58.63
1472;BME280;963;42.644;23.336;2022-09-09T07:25:49;94392.78;;;22.17;59.68
1472;BME280;963;42.644;23.336;2022-09-09T07:28:15;94394.69;;;22.45;59.19
1472;BME280;963;42.644;23.336;2022-09-09T07:30:41;94387.56;;;22.26;58.89
1472;BME280;963;42.644;23.336;2022-09-09T07:33:08;94390.50;;;22.31;59.22
1472;BME280;963;42.644;23.336;2022-09-09T07:35:34;94380.84;;;22.46;59.16
1472;BME280;963;42.644;23.336;2022-09-09T07:38:02;94376.56;;;22.49;58.25
1472;BME280;963;42.644;23.336;2022-09-09T07:40:29;94379.16;;;22.65;58.11
1472;BME280;963;42.644;23.336;2022-09-09T07:42:55;94385.28;;;22.78;57.54
1472;BME280;963;42.644;23.336;2022-09-09T07:45:21;94390.47;;;22.86;57.93
1472;BME280;963;42.644;23.336;2022-09-09T07:47:46;94390.88;;;22.71;58.19
1472;BME280;963;42.644;23.336;2022-09-09T07:50:13;94390.13;;;22.96;57.62
1472;BME280;963;42.644;23.336;2022-09-09T07:52:38;94403.03;;;23.14;56.96
1472;BME280;963;42.644;23.336;2022-09-09T07:55:04;94394.53;;;23.16;56.85
1472;BME280;963;42.644;23.336;2022-09-09T07:57:29;94381.84;;;23.29;56.32
1472;BME280;963;42.644;23.336;2022-09-09T07:59:56;94377.00;;;23.36;55.62
1472;BME280;963;42.644;23.336;2022-09-09T08:02:25;94391.13;;;22.90;56.94
1472;BME280;963;42.644;23.336;2022-09-09T08:04:55;94375.72;;;23.28;55.53
1472;BME280;963;42.644;23.336;2022-09-09T08:07:20;94386.66;;;23.47;55.24
1472;BME280;963;42.644;23.336;2022-09-09T08:09:46;94394.72;;;23.47;55.27
1472;BME280;963;42.644;23.336;2022-09-09T08:12:12;94394.28;;;23.61;54.55
1472;BME280;963;42.644;23.336;2022-09-09T08:14:38;94389.41;;;23.68;54.09
1472;BME280;963;42.644;23.336;2022-09-09T08:17:05;94383.38;;;23.77;53.66
1472;BME280;963;42.644;23.336;2022-09-09T08:19:30;94396.91;;;23.74;53.57
1472;BME280;963;42.644;23.336;2022-09-09T08:21:59;94382.03;;;23.60;53.34
1472;BME280;963;42.644;23.336;2022-09-09T08:24:27;94377.75;;;23.37;53.74
1472;BME280;963;42.644;23.336;2022-09-09T08:26:52;94386.13;;;23.52;54.12
1472;BME280;963;42.644;23.336;2022-09-09T08:29:19;94384.25;;;23.74;53.13
1472;BME280;963;42.644;23.336;2022-09-09T08:31:49;94388.59;;;23.93;52.73
1472;BME280;963;42.644;23.336;2022-09-09T08:34:16;94384.72;;;23.94;52.83
1472;BME280;963;42.644;23.336;2022-09-09T08:36:46;94381.44;;;23.78;53.79
1472;BME280;963;42.644;23.336;2022-09-09T08:39:14;94393.78;;;24.10;52.35
1472;BME280;963;42.644;23.336;2022-09-09T08:54:58;94386.09;;;24.65;51.08
1472;BME280;963;42.644;23.336;2022-09-09T08:57:28;94393.25;;;24.58;50.50
1472;BME280;963;42.644;23.336;2022-09-09T08:59:56;94375.38;;;24.74;50.17
1472;BME280;963;42.644;23.336;2022-09-09T09:05:16;94378.41;;;24.85;50.27
1472;BME280;963;42.644;23.336;2022-09-09T09:10:46;94377.34;;;25.13;48.99
1472;BME280;963;42.644;23.336;2022-09-09T09:13:18;94384.09;;;25.27;49.49
1472;BME280;963;42.644;23.336;2022-09-09T09:15:50;94373.06;;;25.43;48.70
1472;BME280;963;42.644;23.336;2022-09-09T09:18:17;94373.22;;;25.58;48.08
1472;BME280;963;42.644;23.336;2022-09-09T09:23:25;94363.19;;;25.40;49.47
1472;BME280;963;42.644;23.336;2022-09-09T09:25:59;94371.13;;;25.53;48.76
1472;BME280;963;42.644;23.336;2022-09-09T09:28:27;94361.44;;;25.65;48.36
1472;BME280;963;42.644;23.336;2022-09-09T09:30:55;94361.00;;;25.66;48.61
1472;BME280;963;42.644;23.336;2022-09-09T09:33:38;94371.78;;;25.75;47.25
1472;BME280;963;42.644;23.336;2022-09-09T09:36:11;94371.78;;;25.75;47.72
1472;BME280;963;42.644;23.336;2022-09-09T09:38:57;94353.22;;;25.77;47.53
1472;BME280;963;42.644;23.336;2022-09-09T09:41:40;94380.34;;;25.15;48.61
1472;BME280;963;42.644;23.336;2022-09-09T09:44:25;94360.34;;;25.44;48.77
1472;BME280;963;42.644;23.336;2022-09-09T09:46:51;94352.31;;;25.80;47.95
1472;BME280;963;42.644;23.336;2022-09-09T09:49:17;94343.28;;;25.56;47.97
1472;BME280;963;42.644;23.336;2022-09-09T09:51:43;94338.22;;;25.49;47.59
1472;BME280;963;42.644;23.336;2022-09-09T09:54:22;94344.19;;;25.53;48.30
1472;BME280;963;42.644;23.336;2022-09-09T09:56:49;94354.97;;;25.35;48.40
1472;BME280;963;42.644;23.336;2022-09-09T09:59:23;94326.69;;;25.30;48.50
1472;BME280;963;42.644;23.336;2022-09-09T10:01:49;94347.53;;;25.66;48.24
1472;BME280;963;42.644;23.336;2022-09-09T10:04:17;94338.69;;;25.84;48.67
1472;BME280;963;42.644;23.336;2022-09-09T10:06:45;94341.53;;;26.08;48.25
1472;BME280;963;42.644;23.336;2022-09-09T10:17:32;94349.91;;;26.01;47.81
1472;BME280;963;42.644;23.336;2022-09-09T10:22:36;94351.13;;;25.91;47.47
1472;BME280;963;42.644;23.336;2022-09-09T10:31:07;94348.59;;;25.78;48.36
1472;BME280;963;42.644;23.336;2022-09-09T10:34:01;94355.91;;;26.05;48.06
1472;BME280;963;42.644;23.336;2022-09-09T10:36:32;94361.00;;;26.12;47.90
1472;BME280;963;42.644;23.336;2022-09-09T10:39:11;94359.34;;;26.14;48.03
1472;BME280;963;42.644;23.336;2022-09-09T10:50:24;94363.09;;;26.17;47.21
1472;BME280;963;42.644;23.336;2022-09-09T10:53:06;94367.84;;;26.31;47.23
1472;BME280;963;42.644;23.336;2022-09-09T10:55:58;94348.84;;;26.26;47.35
1472;BME280;963;42.644;23.336;2022-09-09T10:58:52;94354.38;;;26.22;47.63
1472;BME280;963;42.644;23.336;2022-09-09T11:01:19;94350.94;;;26.22;47.91
1472;BME280;963;42.644;23.336;2022-09-09T11:03:51;94358.59;;;26.23;48.56
1472;BME280;963;42.644;23.336;2022-09-09T11:06:22;94353.78;;;26.18;49.16
1472;BME280;963;42.644;23.336;2022-09-09T11:08:50;94368.47;;;26.17;49.38
1472;BME280;963;42.644;23.336;2022-09-09T11:11:41;94363.69;;;26.21;49.41
1472;BME280;963;42.644;23.336;2022-09-09T11:14:27;94367.25;;;26.27;49.15
1472;BME280;963;42.644;23.336;2022-09-09T11:17:03;94360.09;;;26.33;48.52
1472;BME280;963;42.644;23.336;2022-09-09T11:19:37;94346.59;;;26.42;48.16
1472;BME280;963;42.644;23.336;2022-09-09T11:22:32;94356.47;;;26.45;48.52
1472;BME280;963;42.644;23.336;2022-09-09T11:33:49;94332.44;;;26.57;47.76
1472;BME280;963;42.644;23.336;2022-09-09T11:36:48;94318.50;;;26.58;48.12
1472;BME280;963;42.644;23.336;2022-09-09T11:42:16;94322.19;;;26.70;47.54
1472;BME280;963;42.644;23.336;2022-09-09T11:44:45;94303.56;;;26.81;47.60
1472;BME280;963;42.644;23.336;2022-09-09T11:49:44;94287.41;;;26.72;48.39
1472;BME280;963;42.644;23.336;2022-09-09T11:55:23;94262.00;;;26.88;48.62
1472;BME280;963;42.644;23.336;2022-09-09T11:58:01;94259.97;;;26.97;48.14
1472;BME280;963;42.644;23.336;2022-09-09T12:00:42;94257.75;;;26.96;47.96
1472;BME280;963;42.644;23.336;2022-09-09T12:06:12;94284.09;;;26.77;49.68
1472;BME280;963;42.644;23.336;2022-09-09T12:08:43;94268.97;;;27.03;49.35
1472;BME280;963;42.644;23.336;2022-09-09T12:11:10;94263.97;;;27.11;48.54
1472;BME280;963;42.644;23.336;2022-09-09T12:13:36;94275.09;;;26.38;49.85
1472;BME280;963;42.644;23.336;2022-09-09T12:16:01;94273.31;;;26.77;49.69
1472;BME280;963;42.644;23.336;2022-09-09T12:18:35;94253.63;;;27.09;48.75
1472;BME280;963;42.644;23.336;2022-09-09T12:23:52;94258.69;;;27.17;48.18
1472;BME280;963;42.644;23.336;2022-09-09T12:26:35;94254.47;;;27.39;47.94
1472;BME280;963;42.644;23.336;2022-09-09T12:34:42;94250.31;;;27.53;47.61
1472;BME280;963;42.644;23.336;2022-09-09T12:37:16;94242.91;;;27.63;46.96
1472;BME280;963;42.644;23.336;2022-09-09T12:39:54;94237.41;;;27.48;46.64
1472;BME280;963;42.644;23.336;2022-09-09T12:42:21;94231.44;;;27.29;47.03
1472;BME280;963;42.644;23.336;2022-09-09T12:47:26;94240.50;;;26.93;48.05
1472;BME280;963;42.644;23.336;2022-09-09T12:49:53;94231.91;;;27.04;47.51
1472;BME280;963;42.644;23.336;2022-09-09T12:52:32;94229.09;;;26.98;47.53
1472;BME280;963;42.644;23.336;2022-09-09T12:55:00;94249.88;;;26.83;48.42
1472;BME280;963;42.644;23.336;2022-09-09T12:57:34;94251.38;;;26.51;48.66
1472;BME280;963;42.644;23.336;2022-09-09T13:00:15;94220.56;;;26.91;48.31
1472;BME280;963;42.644;23.336;2022-09-09T13:02:55;94209.78;;;27.15;48.12
1472;BME280;963;42.644;23.336;2022-09-09T13:07:46;94211.03;;;27.04;47.85
1472;BME280;963;42.644;23.336;2022-09-09T13:10:14;94205.66;;;27.04;47.93
1472;BME280;963;42.644;23.336;2022-09-09T13:12:40;94216.38;;;26.90;48.69
1472;BME280;963;42.644;23.336;2022-09-09T13:15:28;94202.66;;;27.02;48.61
1472;BME280;963;42.644;23.336;2022-09-09T13:18:06;94203.34;;;27.12;48.61
1472;BME280;963;42.644;23.336;2022-09-09T13:20:36;94238.88;;;27.20;48.88
1472;BME280;963;42.644;23.336;2022-09-09T13:23:02;94210.19;;;27.22;49.15
1472;BME280;963;42.644;23.336;2022-09-09T13:25:28;94207.13;;;27.05;48.21
1472;BME280;963;42.644;23.336;2022-09-09T13:28:01;94200.25;;;27.04;48.69
1472;BME280;963;42.644;23.336;2022-09-09T13:30:36;94181.22;;;27.23;48.48
1472;BME280;963;42.644;23.336;2022-09-09T13:38:20;94166.50;;;27.24;49.01
1472;BME280;963;42.644;23.336;2022-09-09T13:41:06;94190.56;;;27.13;49.00
1472;BME280;963;42.644;23.336;2022-09-09T13:43:51;94179.56;;;27.01;49.64
1472;BME280;963;42.644;23.336;2022-09-09T13:46:41;94171.34;;;26.96;49.88
1472;BME280;963;42.644;23.336;2022-09-09T13:51:38;94169.34;;;27.05;49.50
1472;BME280;963;42.644;23.336;2022-09-09T13:54:05;94161.78;;;27.09;49.61
1472;BME280;963;42.644;23.336;2022-09-09T13:56:37;94186.97;;;27.16;50.02
1472;BME280;963;42.644;23.336;2022-09-09T13:59:05;94171.06;;;27.18;49.38
1472;BME280;963;42.644;23.336;2022-09-09T14:01:31;94179.00;;;27.36;48.84
1472;BME280;963;42.644;23.336;2022-09-09T14:03:59;94167.81;;;27.43;49.29
1472;BME280;963;42.644;23.336;2022-09-09T14:06:25;94164.72;;;27.21;49.78
1472;BME280;963;42.644;23.336;2022-09-09T14:08:51;94166.97;;;27.37;49.20
1472;BME280;963;42.644;23.336;2022-09-09T14:11:17;94161.19;;;27.44;49.31
1472;BME280;963;42.644;23.336;2022-09-09T14:13:43;94175.66;;;27.56;49.22
1472;BME280;963;42.644;23.336;2022-09-09T14:16:08;94165.13;;;27.58;49.20
1472;BME280;963;42.644;23.336;2022-09-09T14:18:35;94167.44;;;27.50;48.67
1472;BME280;963;42.644;23.336;2022-09-09T14:21:00;94169.38;;;27.35;49.25
1472;BME280;963;42.644;23.336;2022-09-09T14:23:28;94164.72;;;27.35;49.27
1472;BME280;963;42.644;23.336;2022-09-09T14:25:55;94162.88;;;27.27;49.10
1472;BME280;963;42.644;23.336;2022-09-09T14:28:20;94160.06;;;27.21;49.28
1472;BME280;963;42.644;23.336;2022-09-09T14:30:46;94155.78;;;27.29;49.42
1472;BME280;963;42.644;23.336;2022-09-09T14:33:14;94151.88;;;27.45;49.96
1472;BME280;963;42.644;23.336;2022-09-09T14:35:40;94172.97;;;27.70;48.48
1472;BME280;963;42.644;23.336;2022-09-09T14:38:07;94146.50;;;27.89;48.28
1472;BME280;963;42.644;23.336;2022-09-09T14:40:34;94153.56;;;28.01;47.71
1472;BME280;963;42.644;23.336;2022-09-09T14:42:59;94168.66;;;28.08;47.86
1472;BME280;963;42.644;23.336;2022-09-09T14:45:24;94156.16;;;28.11;47.34
1472;BME280;963;42.644;23.336;2022-09-09T14:47:51;94157.13;;;27.93;47.09
1472;BME280;963;42.644;23.336;2022-09-09T14:50:18;94143.13;;;27.94;47.50
1472;BME280;963;42.644;23.336;2022-09-09T14:52:43;94141.19;;;27.95;47.80
1472;BME280;963;42.644;23.336;2022-09-09T14:55:09;94147.63;;;27.97;47.64
1472;BME280;963;42.644;23.336;2022-09-09T14:57:35;94143.88;;;27.95;47.07
1472;BME280;963;42.644;23.336;2022-09-09T15:00:02;94144.09;;;27.77;47.58
1472;BME280;963;42.644;23.336;2022-09-09T15:02:28;94154.69;;;27.80;47.52
1472;BME280;963;42.644;23.336;2022-09-09T15:04:55;94158.81;;;27.76;48.17
1472;BME280;963;42.644;23.336;2022-09-09T15:07:22;94158.34;;;27.77;48.24
1472;BME280;963;42.644;23.336;2022-09-09T15:09:48;94164.22;;;27.76;48.05
1472;BME280;963;42.644;23.336;2022-09-09T15:12:14;94169.25;;;27.68;48.81
1472;BME280;963;42.644;23.336;2022-09-09T15:14:40;94183.06;;;27.70;48.71
1472;BME280;963;42.644;23.336;2022-09-09T15:17:05;94187.72;;;27.69;49.42
1472;BME280;963;42.644;23.336;2022-09-09T15:19:31;94172.97;;;27.70;49.63
1472;BME280;963;42.644;23.336;2022-09-09T15:21:57;94169.44;;;27.64;49.36
1472;BME280;963;42.644;23.336;2022-09-09T15:24:25;94171.88;;;27.62;48.60
1472;BME280;963;42.644;23.336;2022-09-09T15:26:51;94174.09;;;27.64;48.57
1472;BME280;963;42.644;23.336;2022-09-09T15:29:17;94183.03;;;27.55;49.08
1472;BME280;963;42.644;23.336;2022-09-09T15:31:44;94176.53;;;27.62;49.49
1472;BME280;963;42.644;23.336;2022-09-09T15:34:09;94169.81;;;27.72;49.46
1472;BME280;963;42.644;23.336;2022-09-09T15:36:44;94151.25;;;27.80;48.74
1472;BME280;963;42.644;23.336;2022-09-09T15:39:13;94162.00;;;27.89;48.14
1472;BME280;963;42.644;23.336;2022-09-09T15:41:41;94157.13;;;27.78;48.26